createdAt,value
2018-09-28T00:01:48.608Z,15.00
2018-09-28T00:04:14.592Z,15.00
2018-09-28T00:06:40.665Z,15.00
2018-09-28T00:09:06.656Z,15.00
2018-09-28T00:11:32.603Z,14.90
2018-09-28T00:13:59.377Z,14.90
2018-09-28T00:16:25.364Z,14.90
2018-09-28T00:18:52.090Z,14.90
2018-09-28T00:21:18.063Z,14.90
2018-09-28T00:23:44.052Z,14.90
2018-09-28T00:26:10.026Z,14.90
2018-09-28T00:28:36.027Z,14.90
2018-09-28T00:31:02.008Z,14.90
2018-09-28T00:33:27.985Z,15.00
2018-09-28T00:35:53.995Z,15.00
2018-09-28T00:38:19.957Z,15.00
2018-09-28T00:40:46.021Z,15.00
2018-09-28T00:43:12.239Z,15.00
2018-09-28T00:45:38.241Z,15.00
2018-09-28T00:48:04.233Z,15.00
2018-09-28T00:50:30.244Z,15.10
2018-09-28T00:52:56.219Z,15.10
2018-09-28T00:55:22.982Z,15.10
2018-09-28T00:57:48.943Z,15.10
2018-09-28T01:00:14.926Z,15.10
2018-09-28T01:02:40.929Z,15.10
2018-09-28T01:05:07.635Z,15.10
2018-09-28T01:07:33.648Z,15.10
2018-09-28T01:09:59.615Z,15.10
2018-09-28T01:12:26.370Z,14.90
2018-09-28T01:14:53.076Z,14.90
2018-09-28T01:17:19.077Z,14.90
2018-09-28T01:19:45.040Z,14.90
2018-09-28T01:22:11.057Z,14.80
2018-09-28T01:24:37.836Z,14.80
2018-09-28T01:27:03.830Z,14.70
2018-09-28T01:29:30.579Z,14.70
2018-09-28T01:31:57.284Z,14.70
2018-09-28T01:34:23.258Z,14.70
2018-09-28T01:36:49.209Z,14.70
2018-09-28T01:39:15.200Z,14.60
2018-09-28T01:41:41.162Z,14.60
2018-09-28T01:44:07.172Z,14.60
2018-09-28T01:46:33.130Z,14.60
2018-09-28T01:48:59.134Z,14.60
2018-09-28T01:51:25.106Z,14.60
2018-09-28T01:53:51.186Z,14.70
2018-09-28T01:56:17.147Z,14.60
2018-09-28T01:58:43.854Z,14.60
2018-09-28T02:01:09.869Z,14.60
2018-09-28T02:03:35.849Z,14.60
2018-09-28T02:06:01.856Z,14.60
2018-09-28T02:08:27.869Z,14.50
2018-09-28T02:10:54.618Z,14.50
2018-09-28T02:13:21.347Z,14.50
2018-09-28T02:15:47.363Z,14.50
2018-09-28T02:18:14.072Z,14.40
2018-09-28T02:20:40.062Z,14.40
2018-09-28T02:23:06.042Z,14.40
2018-09-28T02:25:32.055Z,14.40
2018-09-28T02:27:58.080Z,14.40
2018-09-28T02:30:24.035Z,14.30
2018-09-28T02:32:50.775Z,14.20
2018-09-28T02:35:17.508Z,14.10
2018-09-28T02:37:43.533Z,14.10
2018-09-28T02:40:09.501Z,14.20
2018-09-28T02:42:35.515Z,14.20
2018-09-28T02:45:01.486Z,14.10
2018-09-28T02:47:27.491Z,14.10
2018-09-28T02:49:53.478Z,14.10
2018-09-28T02:52:19.472Z,14.10
2018-09-28T02:54:46.228Z,14.00
2018-09-28T02:57:12.947Z,14.00
2018-09-28T02:59:39.699Z,14.00
2018-09-28T03:02:06.397Z,14.00
2018-09-28T03:04:32.420Z,13.90
2018-09-28T03:06:58.404Z,14.00
2018-09-28T03:09:24.422Z,13.90
2018-09-28T03:11:50.401Z,13.90
2018-09-28T03:14:16.420Z,13.90
2018-09-28T03:16:42.409Z,13.80
2018-09-28T03:19:08.374Z,13.80
2018-09-28T03:21:34.392Z,13.70
2018-09-28T03:24:00.381Z,13.70
2018-09-28T03:26:26.379Z,13.70
2018-09-28T03:28:53.091Z,13.70
2018-09-28T03:31:19.082Z,13.70
2018-09-28T03:33:45.058Z,13.70
2018-09-28T03:36:11.795Z,13.70
2018-09-28T03:38:37.737Z,13.70
2018-09-28T03:41:04.468Z,13.70
2018-09-28T03:43:31.176Z,13.60
2018-09-28T03:45:57.137Z,13.60
2018-09-28T03:48:23.868Z,13.60
2018-09-28T03:50:50.593Z,13.50
2018-09-28T03:53:17.385Z,13.50
2018-09-28T03:55:43.373Z,13.50
2018-09-28T03:58:10.100Z,13.50
2018-09-28T04:00:36.082Z,13.50
2018-09-28T04:03:02.188Z,13.50
2018-09-28T04:05:28.123Z,13.50
2018-09-28T04:07:54.116Z,13.50
2018-09-28T04:10:20.125Z,13.40
2018-09-28T04:12:46.890Z,13.40
2018-09-28T04:15:12.874Z,13.40
2018-09-28T04:17:39.597Z,13.40
2018-09-28T04:20:05.618Z,13.40
2018-09-28T04:22:31.593Z,13.40
2018-09-28T04:24:57.582Z,13.40
2018-09-28T04:27:23.550Z,13.40
2018-09-28T04:29:49.535Z,13.40
2018-09-28T04:32:15.509Z,13.40
2018-09-28T04:34:41.533Z,13.40
2018-09-28T04:37:07.547Z,13.40
2018-09-28T04:39:33.561Z,13.40
2018-09-28T04:41:59.608Z,13.40
2018-09-28T04:44:25.593Z,13.40
2018-09-28T04:46:52.340Z,13.40
2018-09-28T04:49:19.035Z,13.40
2018-09-28T04:51:45.059Z,13.40
2018-09-28T04:54:11.041Z,13.40
2018-09-28T04:56:37.188Z,13.40
2018-09-28T04:59:03.957Z,13.40
2018-09-28T05:01:29.949Z,13.30
2018-09-28T05:03:55.904Z,13.40
2018-09-28T05:06:21.866Z,13.30
2018-09-28T05:08:47.882Z,13.30
2018-09-28T05:11:13.876Z,13.20
2018-09-28T05:13:39.883Z,13.20
2018-09-28T05:16:05.937Z,13.20
2018-09-28T05:18:31.998Z,13.10
2018-09-28T05:20:58.726Z,13.10
2018-09-28T05:23:24.728Z,13.10
2018-09-28T05:25:51.454Z,13.10
2018-09-28T05:28:17.452Z,13.10
2018-09-28T05:30:44.969Z,13.10
2018-09-28T05:33:09.424Z,13.20
2018-09-28T05:35:35.378Z,13.10
2018-09-28T05:38:01.357Z,13.10
2018-09-28T05:40:27.358Z,13.10
2018-09-28T05:42:53.367Z,13.10
2018-09-28T05:45:19.322Z,13.00
2018-09-28T05:47:45.300Z,12.80
2018-09-28T05:50:11.309Z,13.00
2018-09-28T05:52:38.020Z,13.00
2018-09-28T05:55:04.010Z,13.00
2018-09-28T05:57:29.995Z,13.10
2018-09-28T05:59:56.720Z,13.10
2018-09-28T06:02:22.698Z,13.10
2018-09-28T06:04:48.683Z,13.10
2018-09-28T06:07:14.659Z,13.00
2018-09-28T06:09:40.653Z,13.10
2018-09-28T06:12:06.620Z,13.00
2018-09-28T06:14:32.617Z,13.00
2018-09-28T06:16:58.595Z,12.90
2018-09-28T06:19:24.619Z,12.90
2018-09-28T06:21:50.607Z,12.90
2018-09-28T06:24:16.678Z,12.80
2018-09-28T06:26:42.573Z,12.80
2018-09-28T06:29:08.548Z,12.80
2018-09-28T06:31:34.550Z,12.90
2018-09-28T06:34:01.273Z,13.20
2018-09-28T06:36:27.260Z,13.20
2018-09-28T06:38:53.231Z,13.80
2018-09-28T06:41:19.232Z,14.20
2018-09-28T06:43:45.178Z,14.00
2018-09-28T06:46:11.905Z,14.30
2018-09-28T06:48:38.629Z,14.30
2018-09-28T06:51:05.371Z,14.60
2018-09-28T06:53:31.333Z,14.60
2018-09-28T06:55:57.308Z,15.70
2018-09-28T06:58:23.329Z,16.80
2018-09-28T07:00:49.326Z,17.20
2018-09-28T07:03:15.323Z,17.40
2018-09-28T07:05:41.342Z,18.00
2018-09-28T07:08:07.376Z,18.70
2018-09-28T07:10:33.396Z,18.20
2018-09-28T07:12:59.386Z,17.20
2018-09-28T07:15:26.120Z,15.80
2018-09-28T07:17:52.902Z,15.30
2018-09-28T07:20:18.855Z,15.30
2018-09-28T07:22:44.832Z,15.10
2018-09-28T07:25:10.860Z,15.10
2018-09-28T07:27:37.598Z,15.00
2018-09-28T07:30:03.630Z,15.00
2018-09-28T07:32:29.615Z,15.10
2018-09-28T07:34:55.621Z,15.40
2018-09-28T07:37:21.590Z,15.50
2018-09-28T07:39:47.582Z,15.50
2018-09-28T07:42:13.578Z,15.50
2018-09-28T07:44:39.666Z,15.50
2018-09-28T07:47:05.639Z,15.60
2018-09-28T07:49:31.629Z,15.50
2018-09-28T07:51:57.624Z,15.40
2018-09-28T07:54:23.610Z,15.30
2018-09-28T07:56:50.372Z,16.80
2018-09-28T07:59:17.094Z,17.80
2018-09-28T08:01:43.090Z,17.80
2018-09-28T08:04:09.088Z,18.30
2018-09-28T08:06:35.108Z,18.40
2018-09-28T08:09:01.093Z,18.70
2018-09-28T08:11:27.065Z,18.50
2018-09-28T08:13:53.074Z,18.90
2018-09-28T08:16:19.751Z,18.60
2018-09-28T08:18:45.744Z,18.60
2018-09-28T08:21:11.694Z,18.30
2018-09-28T08:23:37.709Z,17.90
2018-09-28T08:26:03.701Z,17.10
2018-09-28T08:28:29.707Z,16.70
2018-09-28T08:30:56.425Z,16.60
2018-09-28T08:33:22.424Z,16.60
2018-09-28T08:35:48.381Z,17.30
2018-09-28T08:38:15.137Z,18.10
2018-09-28T08:40:41.853Z,18.30
2018-09-28T08:43:07.984Z,18.20
2018-09-28T08:45:34.023Z,18.20
2018-09-28T08:48:00.019Z,18.00
2018-09-28T08:50:26.026Z,17.90
2018-09-28T08:52:52.780Z,17.70
2018-09-28T08:55:18.756Z,17.60
2018-09-28T08:57:44.705Z,17.90
2018-09-28T09:00:10.682Z,18.20
2018-09-28T09:02:37.400Z,19.10
2018-09-28T09:05:03.395Z,19.10
2018-09-28T09:07:29.376Z,20.10
2018-09-28T09:09:56.217Z,20.30
2018-09-28T09:12:22.998Z,20.30
2018-09-28T09:14:49.008Z,20.10
2018-09-28T09:17:15.006Z,20.00
2018-09-28T09:19:41.728Z,20.40
2018-09-28T09:22:07.715Z,20.40
2018-09-28T09:24:33.664Z,20.70
2018-09-28T09:26:59.636Z,21.10
2018-09-28T09:29:25.579Z,21.00
2018-09-28T09:31:51.571Z,19.60
2018-09-28T09:34:18.274Z,16.70
2018-09-28T09:36:44.253Z,16.60
2018-09-28T09:39:10.240Z,15.70
2018-09-28T09:41:36.968Z,15.10
2018-09-28T09:44:02.951Z,15.00
2018-09-28T09:46:28.908Z,15.10
2018-09-28T09:48:54.936Z,15.00
2018-09-28T09:51:21.658Z,15.00
2018-09-28T09:53:47.634Z,15.00
2018-09-28T09:56:13.582Z,15.30
2018-09-28T09:58:46.446Z,15.20
2018-09-28T10:01:12.490Z,15.30
2018-09-28T10:03:38.452Z,15.70
2018-09-28T10:06:04.430Z,16.90
2018-09-28T10:08:30.390Z,18.20
2018-09-28T10:10:56.378Z,18.80
2018-09-28T10:13:22.359Z,19.60
2018-09-28T10:15:49.106Z,20.90
2018-09-28T10:18:15.802Z,21.60
2018-09-28T10:20:41.789Z,21.50
2018-09-28T10:23:07.746Z,21.70
2018-09-28T10:25:33.754Z,21.80
2018-09-28T10:27:59.744Z,21.60
2018-09-28T10:30:25.724Z,22.10
2018-09-28T10:32:51.727Z,22.40
2018-09-28T10:35:17.716Z,22.00
2018-09-28T10:37:43.733Z,21.10
2018-09-28T10:40:09.728Z,21.60
2018-09-28T10:42:35.693Z,21.60
2018-09-28T10:45:01.662Z,22.10
2018-09-28T10:47:27.665Z,21.90
2018-09-28T10:49:56.869Z,21.10
2018-09-28T10:52:23.056Z,20.20
2018-09-28T10:54:49.639Z,19.30
2018-09-28T10:57:15.733Z,19.30
2018-09-28T10:59:42.437Z,19.50
2018-09-28T11:02:09.174Z,18.80
2018-09-28T11:04:35.919Z,18.50
2018-09-28T11:07:02.697Z,17.90
2018-09-28T11:09:29.422Z,17.60
2018-09-28T11:11:55.392Z,17.60
2018-09-28T11:14:21.388Z,17.20
2018-09-28T11:16:47.366Z,16.80
2018-09-28T11:19:14.095Z,16.90
2018-09-28T11:21:40.054Z,16.80
2018-09-28T11:24:06.057Z,16.90
2018-09-28T11:26:32.752Z,16.20
2018-09-28T11:28:58.738Z,16.20
2018-09-28T11:31:24.718Z,16.10
2018-09-28T11:33:50.769Z,16.10
2018-09-28T11:36:16.711Z,16.10
2018-09-28T11:38:42.655Z,16.30
2018-09-28T11:41:08.644Z,16.40
2018-09-28T11:43:35.365Z,17.00
2018-09-28T11:46:02.108Z,17.20
2018-09-28T11:48:28.873Z,17.20
2018-09-28T11:50:54.878Z,17.20
2018-09-28T11:53:21.590Z,16.80
2018-09-28T11:55:48.384Z,16.80
2018-09-28T11:58:15.114Z,16.30
2018-09-28T12:00:42.874Z,17.10
2018-09-28T12:03:09.189Z,17.10
2018-09-28T12:05:36.184Z,17.50
2018-09-28T12:08:02.763Z,17.60
2018-09-28T12:10:28.854Z,17.30
2018-09-28T12:12:55.715Z,16.50
2018-09-28T12:15:21.800Z,16.50
2018-09-28T12:17:47.950Z,16.50
2018-09-28T12:20:14.745Z,16.60
2018-09-28T12:22:41.512Z,16.40
2018-09-28T12:25:07.502Z,16.40
2018-09-28T12:27:33.589Z,16.10
2018-09-28T12:30:00.376Z,16.20
2018-09-28T12:32:27.148Z,16.10
2018-09-28T12:34:53.165Z,16.10
2018-09-28T12:37:19.177Z,16.10
2018-09-28T12:39:45.325Z,16.30
2018-09-28T12:42:12.014Z,16.90
2018-09-28T12:44:39.755Z,16.90
2018-09-28T12:47:05.811Z,16.90
2018-09-28T12:49:31.932Z,16.90
2018-09-28T12:51:57.938Z,16.70
2018-09-28T12:54:23.952Z,16.80
2018-09-28T12:56:49.950Z,16.80
2018-09-28T12:59:15.950Z,16.70
2018-09-28T13:01:41.953Z,16.60
2018-09-28T13:04:08.676Z,16.70
2018-09-28T13:06:34.677Z,16.60
2018-09-28T13:09:00.664Z,16.60
2018-09-28T13:11:26.615Z,16.60
2018-09-28T13:13:52.580Z,16.20
2018-09-28T13:16:18.559Z,15.60
2018-09-28T13:18:44.560Z,15.50
2018-09-28T13:21:11.264Z,15.20
2018-09-28T13:23:37.231Z,15.20
2018-09-28T13:26:03.268Z,15.30
2018-09-28T13:28:29.287Z,15.10
2018-09-28T13:30:55.329Z,15.10
2018-09-28T13:33:21.284Z,15.00
2018-09-28T13:35:47.997Z,14.90
2018-09-28T13:38:14.048Z,14.80
2018-09-28T13:40:39.998Z,14.80
2018-09-28T13:43:06.001Z,14.70
2018-09-28T13:45:32.829Z,14.60
2018-09-28T13:47:58.755Z,14.60
2018-09-28T13:50:24.797Z,14.60
2018-09-28T13:52:50.789Z,14.50
2018-09-28T13:55:16.750Z,14.60
2018-09-28T13:57:42.760Z,14.60
2018-09-28T14:00:09.487Z,14.90
2018-09-28T14:02:36.274Z,14.90
2018-09-28T14:05:02.212Z,14.90
2018-09-28T14:07:28.186Z,14.90
2018-09-28T14:09:54.182Z,14.80
2018-09-28T14:12:20.968Z,14.90
2018-09-28T14:14:46.949Z,14.90
2018-09-28T14:17:12.902Z,15.10
2018-09-28T14:19:39.656Z,15.20
2018-09-28T14:22:05.637Z,15.10
2018-09-28T14:24:31.645Z,15.20
2018-09-28T14:26:57.634Z,15.10
2018-09-28T14:29:23.602Z,15.10
2018-09-28T14:31:49.585Z,15.10
2018-09-28T14:34:15.564Z,15.20
2018-09-28T14:36:41.560Z,15.10
2018-09-28T14:39:07.501Z,15.10
2018-09-28T14:41:33.505Z,15.10
2018-09-28T14:43:59.474Z,15.00
2018-09-28T14:46:26.291Z,14.80
2018-09-28T14:48:52.318Z,14.80
2018-09-28T14:51:18.170Z,14.60
2018-09-28T14:53:44.879Z,14.20
2018-09-28T14:56:11.633Z,14.10
2018-09-28T14:58:37.645Z,14.10
2018-09-28T15:01:03.782Z,14.10
2018-09-28T15:03:29.580Z,14.10
2018-09-28T15:05:55.561Z,14.10
2018-09-28T15:08:21.653Z,14.10
2018-09-28T15:10:47.750Z,14.10
2018-09-28T15:13:14.405Z,14.00
2018-09-28T15:15:40.353Z,14.00
2018-09-28T15:18:06.363Z,13.90
2018-09-28T15:20:32.326Z,13.90
2018-09-28T15:22:58.273Z,13.90
2018-09-28T15:25:24.255Z,14.00
2018-09-28T15:27:50.217Z,14.10
2018-09-28T15:30:16.284Z,14.20
2018-09-28T15:32:43.052Z,14.20
2018-09-28T15:35:09.043Z,14.40
2018-09-28T15:37:35.735Z,14.50
2018-09-28T15:40:01.699Z,14.50
2018-09-28T15:42:28.391Z,14.50
2018-09-28T15:44:54.356Z,14.50
2018-09-28T15:47:21.063Z,14.40
2018-09-28T15:49:47.040Z,14.40
2018-09-28T15:52:13.759Z,14.20
2018-09-28T15:54:39.737Z,14.20
2018-09-28T15:57:05.750Z,14.10
2018-09-28T15:59:31.722Z,13.90
2018-09-28T16:01:57.702Z,13.80
2018-09-28T16:04:24.379Z,13.50
2018-09-28T16:06:50.365Z,13.50
2018-09-28T16:09:16.433Z,13.40
2018-09-28T16:11:42.417Z,13.30
2018-09-28T16:14:08.387Z,13.20
2018-09-28T16:16:35.215Z,13.10
2018-09-28T16:19:01.161Z,13.10
2018-09-28T16:21:27.871Z,13.00
2018-09-28T16:23:53.818Z,12.90
2018-09-28T16:26:20.541Z,12.90
2018-09-28T16:28:46.526Z,12.90
2018-09-28T16:31:12.512Z,12.80
2018-09-28T16:33:38.462Z,12.80
2018-09-28T16:36:04.446Z,12.80
2018-09-28T16:38:31.173Z,12.70
2018-09-28T16:40:57.121Z,12.70
2018-09-28T16:43:23.835Z,12.60
2018-09-28T16:45:49.782Z,12.60
2018-09-28T16:48:16.508Z,12.50
2018-09-28T16:50:43.220Z,12.50
2018-09-28T16:53:09.497Z,12.40
2018-09-28T16:55:35.464Z,12.40
2018-09-28T16:58:01.436Z,12.30
2018-09-28T17:00:28.148Z,12.10
2018-09-28T17:02:54.110Z,12.10
2018-09-28T17:05:20.165Z,12.00
2018-09-28T17:07:46.767Z,11.90
2018-09-28T17:10:12.801Z,11.90
2018-09-28T17:12:38.814Z,11.90
2018-09-28T17:15:04.814Z,11.80
2018-09-28T17:17:30.773Z,11.70
2018-09-28T17:19:57.097Z,11.60
2018-09-28T17:22:23.082Z,11.50
2018-09-28T17:24:49.067Z,11.40
2018-09-28T17:27:15.069Z,11.30
2018-09-28T17:29:41.024Z,11.30
2018-09-28T17:32:07.011Z,11.30
2018-09-28T17:34:32.973Z,11.40
2018-09-28T17:36:58.968Z,11.50
2018-09-28T17:39:24.931Z,11.60
2018-09-28T17:41:50.934Z,11.70
2018-09-28T17:44:16.892Z,11.70
2018-09-28T17:46:43.639Z,11.80
2018-09-28T17:49:10.326Z,11.80
2018-09-28T17:51:36.306Z,11.80
2018-09-28T17:54:02.298Z,11.70
2018-09-28T17:56:28.271Z,11.60
2018-09-28T17:58:54.262Z,11.60
2018-09-28T18:01:20.975Z,11.40
2018-09-28T18:03:46.969Z,11.30
2018-09-28T18:06:12.914Z,11.20
2018-09-28T18:08:38.891Z,11.10
2018-09-28T18:11:05.588Z,10.80
2018-09-28T18:13:31.592Z,10.80
2018-09-28T18:15:57.652Z,10.70
2018-09-28T18:18:23.855Z,10.60
2018-09-28T18:20:50.728Z,10.50
2018-09-28T18:23:16.839Z,10.50
2018-09-28T18:25:43.673Z,10.50
2018-09-28T18:28:09.716Z,10.40
2018-09-28T18:30:36.534Z,10.40
2018-09-28T18:33:02.693Z,10.30
2018-09-28T18:35:28.763Z,10.30
2018-09-28T18:37:54.833Z,10.20
2018-09-28T18:40:22.370Z,10.10
2018-09-28T18:42:48.421Z,10.10
2018-09-28T18:45:14.531Z,10.10
2018-09-28T18:47:41.388Z,10.10
2018-09-28T18:50:08.217Z,10.10
2018-09-28T18:52:34.951Z,10.10
2018-09-28T18:55:00.939Z,10.10
2018-09-28T18:57:26.898Z,10.10
2018-09-28T18:59:52.899Z,10.00
2018-09-28T19:02:18.872Z,10.00
2018-09-28T19:04:45.709Z,9.90
2018-09-28T19:07:11.713Z,9.90
2018-09-28T19:09:37.695Z,9.90
2018-09-28T19:12:04.442Z,9.80
2018-09-28T19:14:30.409Z,9.80
2018-09-28T19:16:56.396Z,9.70
2018-09-28T19:19:22.390Z,9.70
2018-09-28T19:21:48.451Z,9.60
2018-09-28T19:24:14.425Z,9.50
2018-09-28T19:26:41.158Z,9.40
2018-09-28T19:29:07.902Z,9.40
2018-09-28T19:31:33.865Z,9.40
2018-09-28T19:33:59.886Z,9.30
2018-09-28T19:36:25.842Z,9.40
2018-09-28T19:38:51.859Z,9.30
2018-09-28T19:41:17.864Z,9.30
2018-09-28T19:43:43.871Z,9.30
2018-09-28T19:46:09.856Z,9.40
2018-09-28T19:48:36.599Z,9.30
2018-09-28T19:51:03.301Z,9.30
2018-09-28T19:53:29.298Z,9.20
2018-09-28T19:55:55.242Z,9.10
2018-09-28T19:58:21.318Z,9.00
2018-09-28T20:00:48.035Z,9.00
2018-09-28T20:03:14.025Z,9.00
2018-09-28T20:05:40.004Z,9.00
2018-09-28T20:08:06.708Z,9.00
2018-09-28T20:10:32.701Z,9.00
2018-09-28T20:12:58.673Z,9.10
2018-09-28T20:15:25.446Z,9.00
2018-09-28T20:17:51.416Z,9.00
2018-09-28T20:20:17.444Z,9.00
2018-09-28T20:22:43.414Z,8.90
2018-09-28T20:25:09.416Z,8.90
2018-09-28T20:27:36.121Z,8.80
2018-09-28T20:30:02.149Z,8.80
2018-09-28T20:32:28.905Z,8.70
2018-09-28T20:34:54.891Z,8.70
2018-09-28T20:37:20.834Z,8.70
2018-09-28T20:39:46.833Z,8.70
2018-09-28T20:42:12.810Z,8.60
2018-09-28T20:44:39.525Z,8.50
2018-09-28T20:47:05.525Z,8.40
2018-09-28T20:49:31.500Z,8.40
2018-09-28T20:51:58.234Z,8.30
2018-09-28T20:54:24.963Z,8.30
2018-09-28T20:56:50.988Z,8.20
2018-09-28T20:59:16.964Z,8.20
2018-09-28T21:01:42.955Z,8.10
2018-09-28T21:04:09.669Z,8.00
2018-09-28T21:06:35.650Z,8.00
2018-09-28T21:09:01.609Z,8.00
2018-09-28T21:11:27.622Z,8.00
2018-09-28T21:13:53.597Z,8.00
2018-09-28T21:16:19.578Z,8.00
2018-09-28T21:18:45.572Z,8.00
2018-09-28T21:21:11.518Z,7.90
2018-09-28T21:23:37.563Z,7.90
2018-09-28T21:26:03.496Z,7.80
2018-09-28T21:28:30.223Z,7.80
2018-09-28T21:30:56.203Z,7.70
2018-09-28T21:33:22.198Z,7.80
2018-09-28T21:35:48.170Z,7.70
2018-09-28T21:38:14.203Z,7.70
2018-09-28T21:40:40.275Z,7.70
2018-09-28T21:43:06.315Z,7.70
2018-09-28T21:45:32.298Z,7.60
2018-09-28T21:47:59.038Z,7.60
2018-09-28T21:50:25.735Z,7.60
2018-09-28T21:52:51.717Z,7.70
2018-09-28T21:55:18.448Z,7.50
2018-09-28T21:57:45.177Z,7.50
2018-09-28T22:00:11.931Z,7.50
2018-09-28T22:02:38.632Z,7.40
2018-09-28T22:05:04.661Z,7.40
2018-09-28T22:07:30.653Z,7.40
2018-09-28T22:09:56.658Z,7.40
2018-09-28T22:12:22.627Z,7.30
2018-09-28T22:14:48.651Z,7.30
2018-09-28T22:17:15.406Z,7.30
2018-09-28T22:19:42.166Z,7.30
2018-09-28T22:22:08.892Z,7.40
2018-09-28T22:24:35.644Z,7.30
2018-09-28T22:27:02.380Z,7.30
2018-09-28T22:29:28.490Z,7.30
2018-09-28T22:31:54.500Z,7.20
2018-09-28T22:34:20.531Z,7.20
2018-09-28T22:36:46.529Z,7.10
2018-09-28T22:39:12.464Z,7.10
2018-09-28T22:41:38.436Z,7.10
2018-09-28T22:44:04.540Z,7.10
2018-09-28T22:46:31.298Z,7.00
2018-09-28T22:48:57.299Z,7.00
2018-09-28T22:51:24.204Z,7.00
2018-09-28T22:53:50.997Z,6.90
2018-09-28T22:56:17.759Z,6.90
2018-09-28T22:58:43.733Z,6.90
2018-09-28T23:01:10.511Z,6.90
2018-09-28T23:03:37.214Z,6.80
2018-09-28T23:06:03.218Z,6.80
2018-09-28T23:08:29.165Z,6.80
2018-09-28T23:10:55.130Z,6.80
2018-09-28T23:13:21.110Z,6.70
2018-09-28T23:15:47.076Z,6.70
2018-09-28T23:18:13.050Z,6.70
2018-09-28T23:20:39.020Z,6.70
2018-09-28T23:23:05.024Z,6.70
2018-09-28T23:25:31.764Z,6.70
2018-09-28T23:27:57.754Z,6.70
2018-09-28T23:30:23.732Z,6.70
2018-09-28T23:32:49.788Z,6.60
2018-09-28T23:35:16.476Z,6.50
2018-09-28T23:37:43.169Z,6.50
2018-09-28T23:40:09.154Z,6.40
2018-09-28T23:42:35.126Z,6.50
2018-09-28T23:45:01.117Z,6.50
2018-09-28T23:47:27.083Z,6.40
2018-09-28T23:49:53.067Z,6.40
2018-09-28T23:52:19.057Z,6.50
2018-09-28T23:54:45.069Z,6.40
2018-09-28T23:57:11.017Z,6.40
2018-09-28T23:59:37.005Z,6.40
